sensor_id;sensor_type;location;lat;lon;timestamp;P1;durP1;ratioP1;P2;durP2;ratioP2
6858;SDS011;3468;42.824;23.240;2024-03-06T00:00:06;23.53;;;10.80;;
6858;SDS011;3468;42.824;23.240;2024-03-06T00:02:34;24.97;;;10.37;;
6858;SDS011;3468;42.824;23.240;2024-03-06T00:05:00;21.67;;;10.23;;
6858;SDS011;3468;42.824;23.240;2024-03-06T00:07:27;23.23;;;9.73;;
6858;SDS011;3468;42.824;23.240;2024-03-06T00:09:55;22.33;;;10.13;;
6858;SDS011;3468;42.824;23.240;2024-03-06T00:12:22;21.43;;;8.53;;
6858;SDS011;3468;42.824;23.240;2024-03-06T00:14:49;25.80;;;11.90;;
6858;SDS011;3468;42.824;23.240;2024-03-06T00:17:15;24.80;;;11.10;;
6858;SDS011;3468;42.824;23.240;2024-03-06T00:19:43;24.63;;;11.77;;
6858;SDS011;3468;42.824;23.240;2024-03-06T00:22:10;32.50;;;12.73;;
6858;SDS011;3468;42.824;23.240;2024-03-06T00:24:36;32.33;;;14.93;;
6858;SDS011;3468;42.824;23.240;2024-03-06T00:27:05;27.97;;;13.03;;
6858;SDS011;3468;42.824;23.240;2024-03-06T00:29:31;30.60;;;13.80;;
6858;SDS011;3468;42.824;23.240;2024-03-06T00:31:58;29.00;;;12.50;;
6858;SDS011;3468;42.824;23.240;2024-03-06T00:34:25;26.17;;;11.67;;
6858;SDS011;3468;42.824;23.240;2024-03-06T00:36:52;26.97;;;12.20;;
6858;SDS011;3468;42.824;23.240;2024-03-06T00:39:19;28.10;;;12.67;;
6858;SDS011;3468;42.824;23.240;2024-03-06T00:41:46;26.40;;;12.57;;
6858;SDS011;3468;42.824;23.240;2024-03-06T00:44:14;31.57;;;11.50;;
6858;SDS011;3468;42.824;23.240;2024-03-06T00:46:42;26.90;;;11.63;;
6858;SDS011;3468;42.824;23.240;2024-03-06T00:49:08;26.40;;;11.80;;
6858;SDS011;3468;42.824;23.240;2024-03-06T00:51:35;26.93;;;12.33;;
6858;SDS011;3468;42.824;23.240;2024-03-06T00:54:02;23.37;;;10.53;;
6858;SDS011;3468;42.824;23.240;2024-03-06T00:56:29;22.27;;;10.70;;
6858;SDS011;3468;42.824;23.240;2024-03-06T00:58:57;25.50;;;10.97;;
6858;SDS011;3468;42.824;23.240;2024-03-06T01:01:25;23.87;;;10.70;;
6858;SDS011;3468;42.824;23.240;2024-03-06T01:03:52;22.70;;;10.77;;
6858;SDS011;3468;42.824;23.240;2024-03-06T01:06:20;21.40;;;10.63;;
6858;SDS011;3468;42.824;23.240;2024-03-06T01:08:47;26.10;;;11.67;;
6858;SDS011;3468;42.824;23.240;2024-03-06T01:11:13;24.90;;;11.77;;
6858;SDS011;3468;42.824;23.240;2024-03-06T01:13:40;25.30;;;11.63;;
6858;SDS011;3468;42.824;23.240;2024-03-06T01:16:07;26.43;;;12.10;;
6858;SDS011;3468;42.824;23.240;2024-03-06T01:18:35;30.87;;;12.90;;
6858;SDS011;3468;42.824;23.240;2024-03-06T01:21:02;28.60;;;13.20;;
6858;SDS011;3468;42.824;23.240;2024-03-06T01:23:29;27.07;;;12.13;;
6858;SDS011;3468;42.824;23.240;2024-03-06T01:25:56;25.13;;;11.47;;
6858;SDS011;3468;42.824;23.240;2024-03-06T01:28:23;25.50;;;10.70;;
6858;SDS011;3468;42.824;23.240;2024-03-06T01:30:49;25.77;;;11.97;;
6858;SDS011;3468;42.824;23.240;2024-03-06T01:33:16;24.87;;;11.77;;
6858;SDS011;3468;42.824;23.240;2024-03-06T01:35:44;26.43;;;12.30;;
6858;SDS011;3468;42.824;23.240;2024-03-06T01:38:11;22.50;;;10.93;;
6858;SDS011;3468;42.824;23.240;2024-03-06T01:40:42;27.93;;;12.50;;
6858;SDS011;3468;42.824;23.240;2024-03-06T01:43:17;23.10;;;10.47;;
6858;SDS011;3468;42.824;23.240;2024-03-06T01:45:45;24.70;;;9.90;;
6858;SDS011;3468;42.824;23.240;2024-03-06T01:48:13;17.60;;;9.43;;
6858;SDS011;3468;42.824;23.240;2024-03-06T01:50:40;23.60;;;10.20;;
6858;SDS011;3468;42.824;23.240;2024-03-06T01:53:09;19.63;;;9.47;;
6858;SDS011;3468;42.824;23.240;2024-03-06T01:55:36;19.50;;;9.30;;
6858;SDS011;3468;42.824;23.240;2024-03-06T01:58:04;20.70;;;10.07;;
6858;SDS011;3468;42.824;23.240;2024-03-06T02:00:32;22.20;;;11.37;;
6858;SDS011;3468;42.824;23.240;2024-03-06T02:02:59;18.77;;;9.73;;
6858;SDS011;3468;42.824;23.240;2024-03-06T02:05:27;20.20;;;10.20;;
6858;SDS011;3468;42.824;23.240;2024-03-06T02:07:56;19.70;;;10.43;;
6858;SDS011;3468;42.824;23.240;2024-03-06T02:10:26;20.50;;;10.70;;
6858;SDS011;3468;42.824;23.240;2024-03-06T02:12:53;18.80;;;8.43;;
6858;SDS011;3468;42.824;23.240;2024-03-06T02:15:20;18.37;;;9.03;;
6858;SDS011;3468;42.824;23.240;2024-03-06T02:17:47;15.23;;;8.60;;
6858;SDS011;3468;42.824;23.240;2024-03-06T02:20:14;21.60;;;10.17;;
6858;SDS011;3468;42.824;23.240;2024-03-06T02:22:42;18.83;;;9.63;;
6858;SDS011;3468;42.824;23.240;2024-03-06T02:25:09;19.17;;;9.20;;
6858;SDS011;3468;42.824;23.240;2024-03-06T02:27:37;20.27;;;8.57;;
6858;SDS011;3468;42.824;23.240;2024-03-06T02:30:04;16.30;;;8.00;;
6858;SDS011;3468;42.824;23.240;2024-03-06T02:32:31;21.27;;;10.13;;
6858;SDS011;3468;42.824;23.240;2024-03-06T02:35:00;22.23;;;9.67;;
6858;SDS011;3468;42.824;23.240;2024-03-06T02:37:27;17.67;;;8.47;;
6858;SDS011;3468;42.824;23.240;2024-03-06T02:39:55;17.97;;;9.47;;
6858;SDS011;3468;42.824;23.240;2024-03-06T02:42:22;17.43;;;8.63;;
6858;SDS011;3468;42.824;23.240;2024-03-06T02:44:49;17.43;;;9.43;;
6858;SDS011;3468;42.824;23.240;2024-03-06T02:47:16;18.80;;;8.37;;
6858;SDS011;3468;42.824;23.240;2024-03-06T02:49:42;21.87;;;8.57;;
6858;SDS011;3468;42.824;23.240;2024-03-06T02:52:10;18.30;;;8.90;;
6858;SDS011;3468;42.824;23.240;2024-03-06T02:54:36;20.97;;;8.70;;
6858;SDS011;3468;42.824;23.240;2024-03-06T02:57:05;17.10;;;8.60;;
6858;SDS011;3468;42.824;23.240;2024-03-06T02:59:32;20.20;;;8.90;;
6858;SDS011;3468;42.824;23.240;2024-03-06T03:01:59;20.73;;;10.67;;
6858;SDS011;3468;42.824;23.240;2024-03-06T03:04:25;23.17;;;10.07;;
6858;SDS011;3468;42.824;23.240;2024-03-06T03:06:52;25.23;;;11.17;;
6858;SDS011;3468;42.824;23.240;2024-03-06T03:09:19;20.83;;;10.33;;
6858;SDS011;3468;42.824;23.240;2024-03-06T03:11:46;18.80;;;9.10;;
6858;SDS011;3468;42.824;23.240;2024-03-06T03:14:14;24.50;;;10.03;;
6858;SDS011;3468;42.824;23.240;2024-03-06T03:16:41;21.57;;;9.77;;
6858;SDS011;3468;42.824;23.240;2024-03-06T03:19:08;17.03;;;8.97;;
6858;SDS011;3468;42.824;23.240;2024-03-06T03:21:35;21.47;;;9.33;;
6858;SDS011;3468;42.824;23.240;2024-03-06T03:24:02;20.43;;;9.00;;
6858;SDS011;3468;42.824;23.240;2024-03-06T03:26:29;22.67;;;9.90;;
6858;SDS011;3468;42.824;23.240;2024-03-06T03:28:56;19.07;;;9.13;;
6858;SDS011;3468;42.824;23.240;2024-03-06T03:31:24;19.53;;;8.80;;
6858;SDS011;3468;42.824;23.240;2024-03-06T03:33:51;20.70;;;9.77;;
6858;SDS011;3468;42.824;23.240;2024-03-06T03:36:17;22.67;;;9.13;;
6858;SDS011;3468;42.824;23.240;2024-03-06T03:38:44;22.10;;;9.60;;
6858;SDS011;3468;42.824;23.240;2024-03-06T03:41:11;20.03;;;8.90;;
6858;SDS011;3468;42.824;23.240;2024-03-06T03:43:39;24.80;;;10.47;;
6858;SDS011;3468;42.824;23.240;2024-03-06T03:46:06;24.50;;;10.17;;
6858;SDS011;3468;42.824;23.240;2024-03-06T03:48:34;22.70;;;11.13;;
6858;SDS011;3468;42.824;23.240;2024-03-06T03:51:01;24.13;;;10.97;;
6858;SDS011;3468;42.824;23.240;2024-03-06T03:53:30;22.73;;;11.40;;
6858;SDS011;3468;42.824;23.240;2024-03-06T03:55:57;29.97;;;12.47;;
6858;SDS011;3468;42.824;23.240;2024-03-06T03:58:23;29.20;;;12.50;;
6858;SDS011;3468;42.824;23.240;2024-03-06T04:00:50;23.97;;;11.73;;
6858;SDS011;3468;42.824;23.240;2024-03-06T04:03:18;24.03;;;11.87;;
6858;SDS011;3468;42.824;23.240;2024-03-06T04:05:47;21.63;;;10.90;;
6858;SDS011;3468;42.824;23.240;2024-03-06T04:08:14;22.67;;;10.53;;
6858;SDS011;3468;42.824;23.240;2024-03-06T04:10:41;26.50;;;11.43;;
6858;SDS011;3468;42.824;23.240;2024-03-06T04:13:10;27.77;;;11.17;;
6858;SDS011;3468;42.824;23.240;2024-03-06T04:15:37;28.07;;;11.67;;
6858;SDS011;3468;42.824;23.240;2024-03-06T04:18:04;20.27;;;10.40;;
6858;SDS011;3468;42.824;23.240;2024-03-06T04:20:31;25.50;;;11.40;;
6858;SDS011;3468;42.824;23.240;2024-03-06T04:22:59;33.67;;;15.33;;
6858;SDS011;3468;42.824;23.240;2024-03-06T04:25:25;34.17;;;15.47;;
6858;SDS011;3468;42.824;23.240;2024-03-06T04:27:52;24.90;;;12.27;;
6858;SDS011;3468;42.824;23.240;2024-03-06T04:30:19;24.57;;;11.70;;
6858;SDS011;3468;42.824;23.240;2024-03-06T04:32:46;22.47;;;11.17;;
6858;SDS011;3468;42.824;23.240;2024-03-06T04:35:13;24.90;;;12.93;;
6858;SDS011;3468;42.824;23.240;2024-03-06T04:37:40;22.00;;;11.63;;
6858;SDS011;3468;42.824;23.240;2024-03-06T04:40:09;22.70;;;11.77;;
6858;SDS011;3468;42.824;23.240;2024-03-06T04:42:35;24.27;;;11.50;;
6858;SDS011;3468;42.824;23.240;2024-03-06T04:45:02;21.03;;;12.87;;
6858;SDS011;3468;42.824;23.240;2024-03-06T04:47:29;23.17;;;11.63;;
6858;SDS011;3468;42.824;23.240;2024-03-06T04:49:56;31.87;;;14.10;;
6858;SDS011;3468;42.824;23.240;2024-03-06T04:52:24;37.93;;;17.97;;
6858;SDS011;3468;42.824;23.240;2024-03-06T04:54:51;38.27;;;17.57;;
6858;SDS011;3468;42.824;23.240;2024-03-06T04:57:20;35.03;;;20.13;;
6858;SDS011;3468;42.824;23.240;2024-03-06T04:59:46;28.70;;;14.17;;
6858;SDS011;3468;42.824;23.240;2024-03-06T05:02:13;23.37;;;12.10;;
6858;SDS011;3468;42.824;23.240;2024-03-06T05:04:40;22.07;;;11.70;;
6858;SDS011;3468;42.824;23.240;2024-03-06T05:07:06;23.33;;;10.30;;
6858;SDS011;3468;42.824;23.240;2024-03-06T05:09:33;20.30;;;10.73;;
6858;SDS011;3468;42.824;23.240;2024-03-06T05:12:00;26.33;;;11.97;;
6858;SDS011;3468;42.824;23.240;2024-03-06T05:14:28;25.37;;;11.70;;
6858;SDS011;3468;42.824;23.240;2024-03-06T05:16:55;23.30;;;11.97;;
6858;SDS011;3468;42.824;23.240;2024-03-06T05:19:21;31.27;;;12.17;;
6858;SDS011;3468;42.824;23.240;2024-03-06T05:21:48;23.43;;;11.57;;
6858;SDS011;3468;42.824;23.240;2024-03-06T05:24:15;27.97;;;13.43;;
6858;SDS011;3468;42.824;23.240;2024-03-06T05:26:41;26.10;;;12.50;;
6858;SDS011;3468;42.824;23.240;2024-03-06T05:29:08;25.47;;;13.60;;
6858;SDS011;3468;42.824;23.240;2024-03-06T05:31:37;27.97;;;11.83;;
6858;SDS011;3468;42.824;23.240;2024-03-06T05:34:03;26.33;;;12.70;;
6858;SDS011;3468;42.824;23.240;2024-03-06T05:36:30;23.13;;;11.57;;
6858;SDS011;3468;42.824;23.240;2024-03-06T05:38:57;23.63;;;11.97;;
6858;SDS011;3468;42.824;23.240;2024-03-06T05:41:24;29.50;;;12.83;;
6858;SDS011;3468;42.824;23.240;2024-03-06T05:43:50;26.07;;;12.60;;
6858;SDS011;3468;42.824;23.240;2024-03-06T05:46:17;32.90;;;14.27;;
6858;SDS011;3468;42.824;23.240;2024-03-06T05:48:46;26.80;;;13.27;;
6858;SDS011;3468;42.824;23.240;2024-03-06T05:51:12;28.53;;;14.50;;
6858;SDS011;3468;42.824;23.240;2024-03-06T05:53:39;27.93;;;12.47;;
6858;SDS011;3468;42.824;23.240;2024-03-06T05:56:07;22.20;;;11.80;;
6858;SDS011;3468;42.824;23.240;2024-03-06T05:58:34;23.33;;;10.77;;
6858;SDS011;3468;42.824;23.240;2024-03-06T06:01:01;19.57;;;10.77;;
6858;SDS011;3468;42.824;23.240;2024-03-06T06:03:28;17.37;;;10.17;;
6858;SDS011;3468;42.824;23.240;2024-03-06T06:05:56;25.03;;;10.87;;
6858;SDS011;3468;42.824;23.240;2024-03-06T06:08:24;24.17;;;11.67;;
6858;SDS011;3468;42.824;23.240;2024-03-06T06:10:50;23.27;;;10.57;;
6858;SDS011;3468;42.824;23.240;2024-03-06T06:13:17;25.83;;;11.57;;
6858;SDS011;3468;42.824;23.240;2024-03-06T06:15:44;26.87;;;11.23;;
6858;SDS011;3468;42.824;23.240;2024-03-06T06:18:11;21.97;;;10.17;;
6858;SDS011;3468;42.824;23.240;2024-03-06T06:20:38;25.37;;;11.60;;
6858;SDS011;3468;42.824;23.240;2024-03-06T06:23:06;23.03;;;11.10;;
6858;SDS011;3468;42.824;23.240;2024-03-06T06:25:33;22.17;;;11.17;;
6858;SDS011;3468;42.824;23.240;2024-03-06T06:28:00;27.43;;;11.20;;
6858;SDS011;3468;42.824;23.240;2024-03-06T06:30:26;23.73;;;11.50;;
6858;SDS011;3468;42.824;23.240;2024-03-06T06:32:53;22.17;;;11.77;;
6858;SDS011;3468;42.824;23.240;2024-03-06T06:35:20;29.13;;;11.93;;
6858;SDS011;3468;42.824;23.240;2024-03-06T06:37:47;28.23;;;13.03;;
6858;SDS011;3468;42.824;23.240;2024-03-06T06:40:15;22.53;;;12.50;;
6858;SDS011;3468;42.824;23.240;2024-03-06T06:42:45;30.50;;;12.63;;
6858;SDS011;3468;42.824;23.240;2024-03-06T06:45:14;19.80;;;11.07;;
6858;SDS011;3468;42.824;23.240;2024-03-06T06:47:41;23.70;;;11.60;;
6858;SDS011;3468;42.824;23.240;2024-03-06T06:50:08;23.27;;;10.30;;
6858;SDS011;3468;42.824;23.240;2024-03-06T06:52:36;21.67;;;10.97;;
6858;SDS011;3468;42.824;23.240;2024-03-06T06:55:03;24.17;;;11.57;;
6858;SDS011;3468;42.824;23.240;2024-03-06T06:57:32;22.33;;;11.50;;
6858;SDS011;3468;42.824;23.240;2024-03-06T06:59:59;22.27;;;11.40;;
6858;SDS011;3468;42.824;23.240;2024-03-06T07:02:26;21.17;;;10.97;;
6858;SDS011;3468;42.824;23.240;2024-03-06T07:04:53;22.30;;;10.93;;
6858;SDS011;3468;42.824;23.240;2024-03-06T07:07:19;21.47;;;11.20;;
6858;SDS011;3468;42.824;23.240;2024-03-06T07:09:46;22.07;;;11.00;;
6858;SDS011;3468;42.824;23.240;2024-03-06T07:12:14;22.30;;;11.63;;
6858;SDS011;3468;42.824;23.240;2024-03-06T07:14:42;22.17;;;10.87;;
6858;SDS011;3468;42.824;23.240;2024-03-06T07:17:09;23.83;;;11.57;;
6858;SDS011;3468;42.824;23.240;2024-03-06T07:19:35;22.60;;;11.27;;
6858;SDS011;3468;42.824;23.240;2024-03-06T07:22:02;21.83;;;11.50;;
6858;SDS011;3468;42.824;23.240;2024-03-06T07:24:29;18.57;;;10.20;;
6858;SDS011;3468;42.824;23.240;2024-03-06T07:26:55;22.93;;;10.83;;
6858;SDS011;3468;42.824;23.240;2024-03-06T07:29:22;21.30;;;10.00;;
6858;SDS011;3468;42.824;23.240;2024-03-06T07:31:50;20.17;;;10.47;;
6858;SDS011;3468;42.824;23.240;2024-03-06T07:34:17;25.97;;;14.93;;
6858;SDS011;3468;42.824;23.240;2024-03-06T07:36:44;22.97;;;11.93;;
6858;SDS011;3468;42.824;23.240;2024-03-06T07:39:11;30.67;;;16.50;;
6858;SDS011;3468;42.824;23.240;2024-03-06T07:41:39;25.40;;;11.57;;
6858;SDS011;3468;42.824;23.240;2024-03-06T07:44:06;22.60;;;10.93;;
6858;SDS011;3468;42.824;23.240;2024-03-06T07:46:33;19.27;;;10.13;;
6858;SDS011;3468;42.824;23.240;2024-03-06T07:49:02;20.43;;;10.23;;
6858;SDS011;3468;42.824;23.240;2024-03-06T07:51:30;21.03;;;11.33;;
6858;SDS011;3468;42.824;23.240;2024-03-06T07:53:56;20.10;;;10.53;;
6858;SDS011;3468;42.824;23.240;2024-03-06T07:56:23;24.73;;;11.20;;
6858;SDS011;3468;42.824;23.240;2024-03-06T07:58:50;66.33;;;34.27;;
6858;SDS011;3468;42.824;23.240;2024-03-06T08:01:18;18.67;;;9.80;;
6858;SDS011;3468;42.824;23.240;2024-03-06T08:03:45;38.37;;;18.77;;
6858;SDS011;3468;42.824;23.240;2024-03-06T08:06:14;21.57;;;11.33;;
6858;SDS011;3468;42.824;23.240;2024-03-06T08:08:41;23.87;;;11.67;;
6858;SDS011;3468;42.824;23.240;2024-03-06T08:11:09;23.03;;;11.40;;
6858;SDS011;3468;42.824;23.240;2024-03-06T08:13:36;22.30;;;11.50;;
6858;SDS011;3468;42.824;23.240;2024-03-06T08:16:04;21.83;;;11.93;;
6858;SDS011;3468;42.824;23.240;2024-03-06T08:18:31;19.63;;;10.83;;
6858;SDS011;3468;42.824;23.240;2024-03-06T08:20:59;23.43;;;11.90;;
6858;SDS011;3468;42.824;23.240;2024-03-06T08:23:28;24.33;;;12.83;;
6858;SDS011;3468;42.824;23.240;2024-03-06T08:25:55;23.33;;;10.73;;
6858;SDS011;3468;42.824;23.240;2024-03-06T08:28:22;21.27;;;11.40;;
6858;SDS011;3468;42.824;23.240;2024-03-06T08:30:49;19.77;;;11.30;;
6858;SDS011;3468;42.824;23.240;2024-03-06T08:33:17;21.37;;;11.17;;
6858;SDS011;3468;42.824;23.240;2024-03-06T08:35:46;25.93;;;11.63;;
6858;SDS011;3468;42.824;23.240;2024-03-06T08:38:13;22.13;;;11.83;;
6858;SDS011;3468;42.824;23.240;2024-03-06T08:40:41;19.20;;;10.67;;
6858;SDS011;3468;42.824;23.240;2024-03-06T08:43:10;26.23;;;12.27;;
6858;SDS011;3468;42.824;23.240;2024-03-06T08:45:37;20.37;;;11.37;;
6858;SDS011;3468;42.824;23.240;2024-03-06T08:48:04;21.83;;;12.23;;
6858;SDS011;3468;42.824;23.240;2024-03-06T08:50:31;20.93;;;11.70;;
6858;SDS011;3468;42.824;23.240;2024-03-06T08:52:58;19.90;;;11.17;;
6858;SDS011;3468;42.824;23.240;2024-03-06T08:55:27;19.37;;;11.27;;
6858;SDS011;3468;42.824;23.240;2024-03-06T08:57:55;20.23;;;11.27;;
6858;SDS011;3468;42.824;23.240;2024-03-06T09:00:23;27.33;;;12.10;;
6858;SDS011;3468;42.824;23.240;2024-03-06T09:02:52;25.73;;;12.80;;
6858;SDS011;3468;42.824;23.240;2024-03-06T09:05:18;24.47;;;12.57;;
6858;SDS011;3468;42.824;23.240;2024-03-06T09:07:47;25.77;;;12.63;;
6858;SDS011;3468;42.824;23.240;2024-03-06T09:10:13;22.87;;;11.80;;
6858;SDS011;3468;42.824;23.240;2024-03-06T09:12:40;22.30;;;11.43;;
6858;SDS011;3468;42.824;23.240;2024-03-06T09:15:08;19.70;;;9.70;;
6858;SDS011;3468;42.824;23.240;2024-03-06T09:17:36;19.57;;;10.40;;
6858;SDS011;3468;42.824;23.240;2024-03-06T09:20:04;17.67;;;8.97;;
6858;SDS011;3468;42.824;23.240;2024-03-06T09:22:35;17.60;;;9.43;;
6858;SDS011;3468;42.824;23.240;2024-03-06T09:25:02;29.07;;;15.07;;
6858;SDS011;3468;42.824;23.240;2024-03-06T09:27:30;15.18;;;8.73;;
6858;SDS011;3468;42.824;23.240;2024-03-06T09:29:57;15.27;;;8.53;;
6858;SDS011;3468;42.824;23.240;2024-03-06T09:32:25;17.23;;;9.90;;
6858;SDS011;3468;42.824;23.240;2024-03-06T09:34:52;17.60;;;8.60;;
6858;SDS011;3468;42.824;23.240;2024-03-06T09:37:19;16.77;;;7.45;;
6858;SDS011;3468;42.824;23.240;2024-03-06T09:39:45;16.90;;;8.48;;
6858;SDS011;3468;42.824;23.240;2024-03-06T09:42:12;14.10;;;7.68;;
6858;SDS011;3468;42.824;23.240;2024-03-06T09:44:39;12.90;;;6.78;;
6858;SDS011;3468;42.824;23.240;2024-03-06T09:47:07;14.80;;;8.23;;
6858;SDS011;3468;42.824;23.240;2024-03-06T09:49:37;15.73;;;9.20;;
6858;SDS011;3468;42.824;23.240;2024-03-06T09:52:05;13.35;;;7.68;;
6858;SDS011;3468;42.824;23.240;2024-03-06T09:54:32;16.13;;;8.55;;
6858;SDS011;3468;42.824;23.240;2024-03-06T09:57:00;12.82;;;7.45;;
6858;SDS011;3468;42.824;23.240;2024-03-06T09:59:26;13.20;;;7.15;;
6858;SDS011;3468;42.824;23.240;2024-03-06T10:01:54;12.75;;;7.80;;
6858;SDS011;3468;42.824;23.240;2024-03-06T10:04:22;16.20;;;8.95;;
6858;SDS011;3468;42.824;23.240;2024-03-06T10:06:52;12.80;;;7.30;;
6858;SDS011;3468;42.824;23.240;2024-03-06T10:09:22;15.00;;;7.97;;
6858;SDS011;3468;42.824;23.240;2024-03-06T10:11:49;15.40;;;8.07;;
6858;SDS011;3468;42.824;23.240;2024-03-06T10:14:18;15.90;;;7.97;;
6858;SDS011;3468;42.824;23.240;2024-03-06T10:16:54;16.17;;;7.10;;
6858;SDS011;3468;42.824;23.240;2024-03-06T10:19:22;13.50;;;7.05;;
6858;SDS011;3468;42.824;23.240;2024-03-06T10:21:51;13.40;;;7.38;;
6858;SDS011;3468;42.824;23.240;2024-03-06T10:24:18;15.82;;;7.65;;
6858;SDS011;3468;42.824;23.240;2024-03-06T10:26:46;12.15;;;7.47;;
6858;SDS011;3468;42.824;23.240;2024-03-06T10:29:15;16.88;;;7.18;;
6858;SDS011;3468;42.824;23.240;2024-03-06T10:31:52;12.25;;;6.82;;
6858;SDS011;3468;42.824;23.240;2024-03-06T10:34:20;12.30;;;6.78;;
6858;SDS011;3468;42.824;23.240;2024-03-06T10:36:48;13.93;;;7.40;;
6858;SDS011;3468;42.824;23.240;2024-03-06T10:39:22;11.73;;;6.63;;
6858;SDS011;3468;42.824;23.240;2024-03-06T10:41:51;9.68;;;6.47;;
6858;SDS011;3468;42.824;23.240;2024-03-06T10:44:21;12.73;;;6.40;;
6858;SDS011;3468;42.824;23.240;2024-03-06T10:46:51;13.40;;;7.38;;
6858;SDS011;3468;42.824;23.240;2024-03-06T10:49:23;14.15;;;5.90;;
6858;SDS011;3468;42.824;23.240;2024-03-06T10:51:54;10.73;;;6.70;;
6858;SDS011;3468;42.824;23.240;2024-03-06T10:54:26;11.70;;;7.10;;
6858;SDS011;3468;42.824;23.240;2024-03-06T10:56:55;10.48;;;6.82;;
6858;SDS011;3468;42.824;23.240;2024-03-06T10:59:23;15.87;;;6.93;;
6858;SDS011;3468;42.824;23.240;2024-03-06T11:01:52;10.85;;;6.25;;
6858;SDS011;3468;42.824;23.240;2024-03-06T11:04:20;11.27;;;7.70;;
6858;SDS011;3468;42.824;23.240;2024-03-06T11:06:46;17.00;;;8.50;;
6858;SDS011;3468;42.824;23.240;2024-03-06T11:09:15;23.60;;;11.33;;
6858;SDS011;3468;42.824;23.240;2024-03-06T11:11:48;11.13;;;6.30;;
6858;SDS011;3468;42.824;23.240;2024-03-06T11:14:16;10.85;;;6.13;;
6858;SDS011;3468;42.824;23.240;2024-03-06T11:16:56;13.18;;;5.65;;
6858;SDS011;3468;42.824;23.240;2024-03-06T11:19:24;9.73;;;6.20;;
6858;SDS011;3468;42.824;23.240;2024-03-06T11:21:51;12.98;;;5.65;;
6858;SDS011;3468;42.824;23.240;2024-03-06T11:24:20;10.38;;;5.45;;
6858;SDS011;3468;42.824;23.240;2024-03-06T11:26:48;10.02;;;5.32;;
6858;SDS011;3468;42.824;23.240;2024-03-06T11:29:17;14.80;;;5.45;;
6858;SDS011;3468;42.824;23.240;2024-03-06T11:32:00;8.80;;;5.68;;
6858;SDS011;3468;42.824;23.240;2024-03-06T11:34:28;11.32;;;6.10;;
6858;SDS011;3468;42.824;23.240;2024-03-06T11:36:56;12.32;;;6.05;;
6858;SDS011;3468;42.824;23.240;2024-03-06T11:39:27;10.57;;;5.68;;
6858;SDS011;3468;42.824;23.240;2024-03-06T11:41:56;8.35;;;5.40;;
6858;SDS011;3468;42.824;23.240;2024-03-06T11:44:23;9.48;;;5.25;;
6858;SDS011;3468;42.824;23.240;2024-03-06T11:46:56;11.13;;;5.15;;
6858;SDS011;3468;42.824;23.240;2024-03-06T11:49:25;12.68;;;7.90;;
6858;SDS011;3468;42.824;23.240;2024-03-06T11:51:54;9.40;;;6.27;;
6858;SDS011;3468;42.824;23.240;2024-03-06T11:54:22;19.53;;;8.30;;
6858;SDS011;3468;42.824;23.240;2024-03-06T11:56:52;9.83;;;6.60;;
6858;SDS011;3468;42.824;23.240;2024-03-06T11:59:23;8.07;;;6.20;;
6858;SDS011;3468;42.824;23.240;2024-03-06T12:01:50;11.17;;;7.33;;
6858;SDS011;3468;42.824;23.240;2024-03-06T12:04:18;13.67;;;5.70;;
6858;SDS011;3468;42.824;23.240;2024-03-06T12:06:45;11.33;;;6.27;;
6858;SDS011;3468;42.824;23.240;2024-03-06T12:09:13;12.60;;;4.80;;
6858;SDS011;3468;42.824;23.240;2024-03-06T12:11:40;13.30;;;5.87;;
6858;SDS011;3468;42.824;23.240;2024-03-06T12:14:13;9.47;;;5.20;;
6858;SDS011;3468;42.824;23.240;2024-03-06T12:16:42;20.77;;;10.00;;
6858;SDS011;3468;42.824;23.240;2024-03-06T12:19:09;10.17;;;5.50;;
6858;SDS011;3468;42.824;23.240;2024-03-06T12:21:36;13.43;;;6.53;;
6858;SDS011;3468;42.824;23.240;2024-03-06T12:24:06;18.23;;;8.53;;
6858;SDS011;3468;42.824;23.240;2024-03-06T12:26:34;11.40;;;6.77;;
6858;SDS011;3468;42.824;23.240;2024-03-06T12:29:04;14.90;;;8.90;;
6858;SDS011;3468;42.824;23.240;2024-03-06T12:31:33;8.03;;;5.67;;
6858;SDS011;3468;42.824;23.240;2024-03-06T12:34:01;9.37;;;5.50;;
6858;SDS011;3468;42.824;23.240;2024-03-06T12:36:28;10.73;;;5.50;;
6858;SDS011;3468;42.824;23.240;2024-03-06T12:38:56;6.20;;;4.43;;
6858;SDS011;3468;42.824;23.240;2024-03-06T12:41:25;7.33;;;5.47;;
6858;SDS011;3468;42.824;23.240;2024-03-06T12:43:53;9.30;;;5.87;;
6858;SDS011;3468;42.824;23.240;2024-03-06T12:46:20;12.30;;;4.97;;
6858;SDS011;3468;42.824;23.240;2024-03-06T12:48:51;9.90;;;5.77;;
6858;SDS011;3468;42.824;23.240;2024-03-06T12:51:17;9.20;;;5.70;;
6858;SDS011;3468;42.824;23.240;2024-03-06T12:53:44;12.10;;;6.60;;
6858;SDS011;3468;42.824;23.240;2024-03-06T12:56:11;35.50;;;14.43;;
6858;SDS011;3468;42.824;23.240;2024-03-06T12:58:38;58.67;;;26.67;;
6858;SDS011;3468;42.824;23.240;2024-03-06T13:01:05;7.93;;;4.67;;
6858;SDS011;3468;42.824;23.240;2024-03-06T13:03:31;9.63;;;4.87;;
6858;SDS011;3468;42.824;23.240;2024-03-06T13:06:00;8.20;;;4.63;;
6858;SDS011;3468;42.824;23.240;2024-03-06T13:08:26;8.57;;;5.23;;
6858;SDS011;3468;42.824;23.240;2024-03-06T13:10:55;10.63;;;5.37;;
6858;SDS011;3468;42.824;23.240;2024-03-06T13:13:22;11.30;;;5.70;;
6858;SDS011;3468;42.824;23.240;2024-03-06T13:15:50;7.43;;;4.70;;
6858;SDS011;3468;42.824;23.240;2024-03-06T13:18:17;9.13;;;4.77;;
6858;SDS011;3468;42.824;23.240;2024-03-06T13:20:44;10.83;;;5.07;;
6858;SDS011;3468;42.824;23.240;2024-03-06T13:23:12;10.73;;;5.20;;
6858;SDS011;3468;42.824;23.240;2024-03-06T13:25:39;7.20;;;4.60;;
6858;SDS011;3468;42.824;23.240;2024-03-06T13:28:06;7.87;;;4.93;;
6858;SDS011;3468;42.824;23.240;2024-03-06T13:30:33;9.23;;;4.53;;
6858;SDS011;3468;42.824;23.240;2024-03-06T13:33:00;6.20;;;4.20;;
6858;SDS011;3468;42.824;23.240;2024-03-06T13:35:27;8.83;;;4.27;;
6858;SDS011;3468;42.824;23.240;2024-03-06T13:37:54;8.17;;;4.73;;
6858;SDS011;3468;42.824;23.240;2024-03-06T13:40:23;6.50;;;3.80;;
6858;SDS011;3468;42.824;23.240;2024-03-06T13:42:51;5.33;;;3.70;;
6858;SDS011;3468;42.824;23.240;2024-03-06T13:45:17;6.00;;;3.60;;
6858;SDS011;3468;42.824;23.240;2024-03-06T13:47:44;5.87;;;3.80;;
6858;SDS011;3468;42.824;23.240;2024-03-06T13:50:11;6.27;;;3.27;;
6858;SDS011;3468;42.824;23.240;2024-03-06T13:52:39;5.93;;;3.70;;
6858;SDS011;3468;42.824;23.240;2024-03-06T13:55:07;6.00;;;3.70;;
6858;SDS011;3468;42.824;23.240;2024-03-06T13:57:36;5.43;;;3.43;;
6858;SDS011;3468;42.824;23.240;2024-03-06T14:00:04;8.77;;;3.60;;
6858;SDS011;3468;42.824;23.240;2024-03-06T14:02:35;6.47;;;3.97;;
6858;SDS011;3468;42.824;23.240;2024-03-06T14:05:02;6.90;;;4.57;;
6858;SDS011;3468;42.824;23.240;2024-03-06T14:07:29;5.63;;;3.47;;
6858;SDS011;3468;42.824;23.240;2024-03-06T14:09:58;5.80;;;3.27;;
6858;SDS011;3468;42.824;23.240;2024-03-06T14:12:25;6.00;;;3.77;;
6858;SDS011;3468;42.824;23.240;2024-03-06T14:14:53;7.57;;;3.73;;
6858;SDS011;3468;42.824;23.240;2024-03-06T14:17:20;5.03;;;3.40;;
6858;SDS011;3468;42.824;23.240;2024-03-06T14:19:47;10.60;;;5.03;;
6858;SDS011;3468;42.824;23.240;2024-03-06T14:22:14;7.83;;;4.37;;
6858;SDS011;3468;42.824;23.240;2024-03-06T14:24:41;8.63;;;5.40;;
6858;SDS011;3468;42.824;23.240;2024-03-06T14:27:08;9.10;;;5.47;;
6858;SDS011;3468;42.824;23.240;2024-03-06T14:29:35;11.10;;;5.93;;
6858;SDS011;3468;42.824;23.240;2024-03-06T14:32:04;13.27;;;8.10;;
6858;SDS011;3468;42.824;23.240;2024-03-06T14:34:31;11.20;;;6.73;;
6858;SDS011;3468;42.824;23.240;2024-03-06T14:36:58;11.97;;;6.47;;
6858;SDS011;3468;42.824;23.240;2024-03-06T14:39:25;13.80;;;7.57;;
6858;SDS011;3468;42.824;23.240;2024-03-06T14:41:52;16.90;;;9.83;;
6858;SDS011;3468;42.824;23.240;2024-03-06T14:44:19;14.17;;;7.13;;